FW2876 Weather Reports


Display with metric or nautical units.
time (UTC)temp
F
wind
direction
speed
MPH
gust
MPH
rain 1hr
in
rain 24hr
in
rain mn
in
humidity
%
barometer
mb
20190324211716 82 257 8.0 21.0 0.00 0.00 0.00 20 1013.7
20190324210139 81 275 9.0 18.0 0.00 0.00 0.00 24 1013.7
20190324204833 81 233 7.0 21.0 0.00 0.00 0.00 25 1013.9
20190324203135 81 213 12.0 18.0 0.00 0.00 0.00 27 1014.0
20190324201557 81 234 10.0 16.0 0.00 0.00 0.00 31 1014.3
20190324200050 80 246 10.0 20.0 0.00 0.00 0.00 31 1014.5
20190324194553 79 232 13.0 18.0 0.00 0.00 0.00 32 1014.9
20190324193100 79 256 10.0 20.0 0.00 0.00 0.00 30 1015.1
20190324191624 79 263 11.0 20.0 0.00 0.00 0.00 34 1015.3
20190324190048 79 249 11.0 17.0 0.00 0.00 0.00 34 1015.4
20190324184732 78 220 12.0 19.0 0.00 0.00 0.00 37 1015.6
20190324183103 77 273 10.0 18.0 0.00 0.00 0.00 36 1015.8
20190324181606 77 253 10.0 20.0 0.00 0.00 0.00 41 1015.8
20190324180059 76 262 14.0 19.0 0.00 0.00 0.00 42 1016.2
20190324174532 75 290 14.0 20.0 0.00 0.00 0.00 47 1016.3
20190324173047 75 269 10.0 18.0 0.00 0.00 0.00 49 1016.5
20190324171543 73 263 15.0 20.0 0.00 0.00 0.00 52 1016.6
20190324170029 73 263 11.0 19.0 0.00 0.00 0.00 54 1016.7
20190324164528 72 252 14.0 20.0 0.00 0.00 0.00 55 1016.8
20190324163033 71 223 14.0 18.0 0.00 0.00 0.00 58 1016.9
20190324161520 71 243 17.0 21.0 0.00 0.00 0.00 59 1016.7
20190324160015 70 238 12.0 19.0 0.00 0.00 0.00 62 1016.6
20190324154555 69 223 13.0 19.0 0.00 0.00 0.00 63 1016.5
20190324153007 68 232 15.0 22.0 0.00 0.00 0.00 64 1016.4
20190324151502 67 216 16.0 20.0 0.00 0.00 0.00 67 1016.4
20190324150147 66 225 12.0 19.0 0.00 0.00 0.00 70 1016.3
20190324144624 65 220 16.0 25.0 0.00 0.00 0.00 72 1016.2
20190324143223 64 207 17.0 26.0 0.00 0.00 0.00 73 1016.2
20190324141629 64 211 14.0 22.0 0.00 0.00 0.00 74 1016.0
20190324140158 64 228 15.0 21.0 0.00 0.00 0.00 74 1015.7
20190324134605 63 209 13.0 17.0 0.00 0.00 0.00 76 1015.6
20190324133123 61 203 11.0 14.0 0.00 0.00 0.00 78 1015.7
20190324131653 61 223 11.0 19.0 0.00 0.00 0.00 78 1015.4
20190324130117 60 202 12.0 19.0 0.00 0.00 0.00 78 1015.3
20190324124623 60 190 10.0 12.0 0.00 0.00 0.00 79 1015.3
20190324123103 60 207 8.0 12.0 0.00 0.00 0.00 79 1015.2
20190324121603 61 171 7.0 13.0 0.00 0.00 0.00 78 1015.2
20190324120052 61 210 10.0 15.0 0.00 0.00 0.00 78 1015.0
20190324114609 61 198 10.0 15.0 0.00 0.00 0.00 78 1015.0
20190324113111 60 214 10.0 15.0 0.00 0.00 0.00 79 1014.9
20190324111615 60 203 10.0 18.0 0.00 0.00 0.00 79 1014.8
20190324110104 59 209 12.0 18.0 0.00 0.00 0.00 79 1014.8
20190324104603 59 213 13.0 22.0 0.00 0.00 0.00 78 1014.7
20190324103110 59 202 9.0 13.0 0.00 0.00 0.00 78 1014.7
20190324101604 58 206 8.0 12.0 0.00 0.00 0.00 77 1014.7
20190324100117 58 189 6.0 10.0 0.00 0.00 0.00 77 1014.5
20190324094551 58 179 5.0 9.0 0.00 0.00 0.00 75 1014.4
20190324093109 58 197 7.0 10.0 0.00 0.00 0.00 74 1014.5
20190324091544 57 195 5.0 8.0 0.00 0.00 0.00 72 1014.4
20190324090030 57 173 6.0 10.0 0.00 0.00 0.00 70 1014.4
20190324084531 58 173 5.0 9.0 0.00 0.00 0.00 69 1014.4
20190324083029 58 194 5.0 9.0 0.00 0.00 0.00 67 1014.5
20190324081540 60 207 8.0 12.0 0.00 0.00 0.00 66 1014.5
20190324080027 62 217 12.0 17.0 0.00 0.00 0.00 62 1014.6
20190324074525 62 206 12.0 17.0 0.00 0.00 0.00 62 1014.3
20190324073036 61 204 8.0 14.0 0.00 0.00 0.00 60 1014.5
20190324071517 63 203 12.0 20.0 0.00 0.00 0.00 55 1014.7
20190324070013 62 206 15.0 21.0 0.00 0.00 0.00 53 1014.6
20190324064507 59 180 10.0 16.0 0.00 0.00 0.00 40 1014.5
20190324063004 60 178 7.0 14.0 0.00 0.00 0.00 35 1014.5
20190324061715 58 134 7.0 11.0 0.00 0.00 0.00 38 1014.4
20190324060220 59 137 8.0 15.0 0.00 0.00 0.00 36 1014.7
20190324054709 59 178 4.0 8.0 0.00 0.00 0.00 34 1014.5
20190324053256 59 146 4.0 5.0 0.00 0.00 0.00 35 1014.7
20190324051612 59 159 3.0 6.0 0.00 0.00 0.00 34 1014.7
20190324050122 59 144 4.0 7.0 0.00 0.00 0.00 35 1014.5
20190324044709 60 151 3.0 5.0 0.00 0.00 0.00 32 1014.7
20190324043156 61 151 3.0 5.0 0.00 0.00 0.00 31 1014.8
20190324041623 64 173 3.0 5.0 0.00 0.00 0.00 28 1014.8
20190324040136 66 213 3.0 4.0 0.00 0.00 0.00 24 1015.0
20190324034721 66 188 2.0 7.0 0.00 0.00 0.00 25 1014.7
20190324033146 66 186 3.0 7.0 0.00 0.00 0.00 25 1014.6
20190324031642 66 222 6.0 8.0 0.00 0.00 0.00 23 1014.3
20190324030111 65 201 4.0 6.0 0.00 0.00 0.00 26 1014.1
20190324024644 69 221 5.0 8.0 0.00 0.00 0.00 21 1013.8
20190324023211 68 200 7.0 9.0 0.00 0.00 0.00 23 1013.6
20190324021639 69 212 7.0 10.0 0.00 0.00 0.00 22 1013.5
20190324020100 68 217 9.0 12.0 0.00 0.00 0.00 24 1013.5
20190324014636 68 210 9.0 11.0 0.00 0.00 0.00 23 1013.3
20190324013121 69 216 6.0 9.0 0.00 0.00 0.00 22 1013.1
20190324011635 69 230 7.0 10.0 0.00 0.00 0.00 22 1012.9
20190324010114 69 218 7.0 9.0 0.00 0.00 0.00 22 1013.0
20190324004647 70 217 6.0 8.0 0.00 0.00 0.00 22 1013.2
20190324001735 71 236 6.0 10.0 0.00 0.00 0.00 21 1013.2
20190324000115 73 261 8.0 12.0 0.00 0.00 0.00 21 1013.3
20190323234651 74 237 10.0 16.0 0.00 0.00 0.00 18 1013.2
20190323233059 75 241 9.0 19.0 0.00 0.00 0.00 17 1013.2
20190323231648 75 230 12.0 18.0 0.00 0.00 0.00 18 1013.1
20190323230106 76 250 11.0 17.0 0.00 0.00 0.00 15 1013.0
20190323224610 76 216 7.0 17.0 0.00 0.00 0.00 20 1013.2
20190323223101 76 253 13.0 21.0 0.00 0.00 0.00 18 1013.2
20190323221619 75 260 12.0 19.0 0.00 0.00 0.00 19 1013.2
20190323220135 75 227 13.0 18.0 0.00 0.00 0.00 20 1013.3
20190323214548 75 217 8.0 18.0 0.00 0.00 0.00 20 1013.1
20190323213109 75 232 12.0 18.0 0.00 0.00 0.00 20 1013.1